sensor_id;sensor_type;location;lat;lon;timestamp;P1;P2;P0
55549;PMS7003;41397;49.972;18.944;2023-02-01T00:00:36;6;6;5
55549;PMS7003;41397;49.972;18.944;2023-02-01T00:03:42;9;9;8
55549;PMS7003;41397;49.972;18.944;2023-02-01T00:06:44;8;8;5
55549;PMS7003;41397;49.972;18.944;2023-02-01T00:09:45;7;7;5
55549;PMS7003;41397;49.972;18.944;2023-02-01T00:12:47;5;5;4
55549;PMS7003;41397;49.972;18.944;2023-02-01T00:15:48;7;7;6
55549;PMS7003;41397;49.972;18.944;2023-02-01T00:18:50;5;5;4
55549;PMS7003;41397;49.972;18.944;2023-02-01T00:21:53;7;7;5
55549;PMS7003;41397;49.972;18.944;2023-02-01T00:24:54;5;5;3
55549;PMS7003;41397;49.972;18.944;2023-02-01T00:27:55;7;7;4
55549;PMS7003;41397;49.972;18.944;2023-02-01T00:31:00;5;5;5
55549;PMS7003;41397;49.972;18.944;2023-02-01T00:34:03;7;7;6
55549;PMS7003;41397;49.972;18.944;2023-02-01T00:37:04;10;10;6
55549;PMS7003;41397;49.972;18.944;2023-02-01T00:40:06;7;7;5
55549;PMS7003;41397;49.972;18.944;2023-02-01T00:43:08;7;7;6
55549;PMS7003;41397;49.972;18.944;2023-02-01T00:46:10;8;8;7
55549;PMS7003;41397;49.972;18.944;2023-02-01T00:49:13;10;10;7
55549;PMS7003;41397;49.972;18.944;2023-02-01T00:52:14;5;5;5
55549;PMS7003;41397;49.972;18.944;2023-02-01T00:55:16;7;7;5
55549;PMS7003;41397;49.972;18.944;2023-02-01T00:58:17;6;6;6
55549;PMS7003;41397;49.972;18.944;2023-02-01T01:01:20;11;11;9
55549;PMS7003;41397;49.972;18.944;2023-02-01T01:04:27;6;6;5
55549;PMS7003;41397;49.972;18.944;2023-02-01T01:07:33;10;10;8
55549;PMS7003;41397;49.972;18.944;2023-02-01T01:10:35;6;6;5
55549;PMS7003;41397;49.972;18.944;2023-02-01T01:13:36;6;6;5
55549;PMS7003;41397;49.972;18.944;2023-02-01T01:16:38;6;6;5
55549;PMS7003;41397;49.972;18.944;2023-02-01T01:19:41;7;7;6
55549;PMS7003;41397;49.972;18.944;2023-02-01T01:22:43;9;9;8
55549;PMS7003;41397;49.972;18.944;2023-02-01T01:25:44;10;10;8
55549;PMS7003;41397;49.972;18.944;2023-02-01T01:28:46;7;7;5
55549;PMS7003;41397;49.972;18.944;2023-02-01T01:31:49;8;8;6
55549;PMS7003;41397;49.972;18.944;2023-02-01T01:34:51;13;13;8
55549;PMS7003;41397;49.972;18.944;2023-02-01T01:37:52;10;10;8
55549;PMS7003;41397;49.972;18.944;2023-02-01T01:40:54;8;8;6
55549;PMS7003;41397;49.972;18.944;2023-02-01T01:43:58;11;11;8
55549;PMS7003;41397;49.972;18.944;2023-02-01T01:47:06;8;8;4
55549;PMS7003;41397;49.972;18.944;2023-02-01T01:50:10;5;5;4
55549;PMS7003;41397;49.972;18.944;2023-02-01T01:53:19;3;3;3
55549;PMS7003;41397;49.972;18.944;2023-02-01T01:56:24;0;0;0
55549;PMS7003;41397;49.972;18.944;2023-02-01T01:59:27;0;0;0
55549;PMS7003;41397;49.972;18.944;2023-02-01T02:02:32;0;0;0
55549;PMS7003;41397;49.972;18.944;2023-02-01T02:05:33;0;0;0
55549;PMS7003;41397;49.972;18.944;2023-02-01T02:08:35;0;0;0
55549;PMS7003;41397;49.972;18.944;2023-02-01T02:11:36;0;0;0
55549;PMS7003;41397;49.972;18.944;2023-02-01T02:14:37;0;0;0
55549;PMS7003;41397;49.972;18.944;2023-02-01T02:17:49;0;0;0
55549;PMS7003;41397;49.972;18.944;2023-02-01T02:24:10;0;0;0
55549;PMS7003;41397;49.972;18.944;2023-02-01T02:40:26;0;0;0
55549;PMS7003;41397;49.972;18.944;2023-02-01T02:43:37;0;0;0
55549;PMS7003;41397;49.972;18.944;2023-02-01T02:47:00;0;0;0
55549;PMS7003;41397;49.972;18.944;2023-02-01T02:53:52;0;0;0
55549;PMS7003;41397;49.972;18.944;2023-02-01T02:57:06;0;0;0
55549;PMS7003;41397;49.972;18.944;2023-02-01T03:00:24;0;0;0
55549;PMS7003;41397;49.972;18.944;2023-02-01T03:03:42;0;0;0
55549;PMS7003;41397;49.972;18.944;2023-02-01T03:06:56;0;0;0
55549;PMS7003;41397;49.972;18.944;2023-02-01T03:10:02;0;0;0
55549;PMS7003;41397;49.972;18.944;2023-02-01T03:13:13;1;1;1
55549;PMS7003;41397;49.972;18.944;2023-02-01T03:16:39;0;0;0
55549;PMS7003;41397;49.972;18.944;2023-02-01T03:19:35;0;0;0
55549;PMS7003;41397;49.972;18.944;2023-02-01T03:22:49;0;0;0
55549;PMS7003;41397;49.972;18.944;2023-02-01T03:25:54;0;0;0
55549;PMS7003;41397;49.972;18.944;2023-02-01T03:29:13;0;0;0
55549;PMS7003;41397;49.972;18.944;2023-02-01T03:32:12;0;0;0
55549;PMS7003;41397;49.972;18.944;2023-02-01T03:35:14;1;1;0
55549;PMS7003;41397;49.972;18.944;2023-02-01T03:38:19;0;0;0
55549;PMS7003;41397;49.972;18.944;2023-02-01T03:41:32;0;0;0
55549;PMS7003;41397;49.972;18.944;2023-02-01T03:47:52;1;1;1
55549;PMS7003;41397;49.972;18.944;2023-02-01T03:50:58;3;3;3
55549;PMS7003;41397;49.972;18.944;2023-02-01T03:54:05;2;2;1
55549;PMS7003;41397;49.972;18.944;2023-02-01T03:57:13;5;5;4
55549;PMS7003;41397;49.972;18.944;2023-02-01T04:00:22;7;7;5
55549;PMS7003;41397;49.972;18.944;2023-02-01T04:03:26;5;5;4
55549;PMS7003;41397;49.972;18.944;2023-02-01T04:06:28;3;3;2
55549;PMS7003;41397;49.972;18.944;2023-02-01T04:09:30;6;6;5
55549;PMS7003;41397;49.972;18.944;2023-02-01T04:12:31;4;4;4
55549;PMS7003;41397;49.972;18.944;2023-02-01T04:15:33;5;5;4
55549;PMS7003;41397;49.972;18.944;2023-02-01T04:18:35;6;6;5
55549;PMS7003;41397;49.972;18.944;2023-02-01T04:21:37;9;9;5
55549;PMS7003;41397;49.972;18.944;2023-02-01T04:24:38;11;11;8
55549;PMS7003;41397;49.972;18.944;2023-02-01T04:27:40;8;7;6
55549;PMS7003;41397;49.972;18.944;2023-02-01T04:30:43;10;9;8
55549;PMS7003;41397;49.972;18.944;2023-02-01T04:33:45;11;11;9
55549;PMS7003;41397;49.972;18.944;2023-02-01T04:36:47;7;7;7
55549;PMS7003;41397;49.972;18.944;2023-02-01T04:39:49;8;8;6
55549;PMS7003;41397;49.972;18.944;2023-02-01T04:42:50;8;8;6
55549;PMS7003;41397;49.972;18.944;2023-02-01T04:45:52;4;4;3
55549;PMS7003;41397;49.972;18.944;2023-02-01T04:48:54;5;5;4
55549;PMS7003;41397;49.972;18.944;2023-02-01T04:51:55;5;5;4
55549;PMS7003;41397;49.972;18.944;2023-02-01T04:54:59;6;6;5
55549;PMS7003;41397;49.972;18.944;2023-02-01T04:58:02;5;5;4
55549;PMS7003;41397;49.972;18.944;2023-02-01T05:01:04;4;4;3
55549;PMS7003;41397;49.972;18.944;2023-02-01T05:04:07;6;5;4
55549;PMS7003;41397;49.972;18.944;2023-02-01T05:07:08;4;4;2
55549;PMS7003;41397;49.972;18.944;2023-02-01T05:10:10;4;4;3
55549;PMS7003;41397;49.972;18.944;2023-02-01T05:13:11;4;4;3
55549;PMS7003;41397;49.972;18.944;2023-02-01T05:16:25;4;4;4
55549;PMS7003;41397;49.972;18.944;2023-02-01T05:19:27;2;2;2
55549;PMS7003;41397;49.972;18.944;2023-02-01T05:22:33;7;7;5
55549;PMS7003;41397;49.972;18.944;2023-02-01T05:25:35;4;3;3
55549;PMS7003;41397;49.972;18.944;2023-02-01T05:28:36;3;3;2
55549;PMS7003;41397;49.972;18.944;2023-02-01T05:31:37;2;2;2
55549;PMS7003;41397;49.972;18.944;2023-02-01T05:34:41;2;2;2
55549;PMS7003;41397;49.972;18.944;2023-02-01T05:37:43;3;3;3
55549;PMS7003;41397;49.972;18.944;2023-02-01T05:40:44;2;2;2
55549;PMS7003;41397;49.972;18.944;2023-02-01T05:43:50;3;3;3
55549;PMS7003;41397;49.972;18.944;2023-02-01T05:46:51;3;3;2
55549;PMS7003;41397;49.972;18.944;2023-02-01T05:49:53;3;3;2
55549;PMS7003;41397;49.972;18.944;2023-02-01T05:52:54;5;5;4
55549;PMS7003;41397;49.972;18.944;2023-02-01T05:55:55;5;5;3
55549;PMS7003;41397;49.972;18.944;2023-02-01T05:59:00;3;3;2
55549;PMS7003;41397;49.972;18.944;2023-02-01T06:02:01;3;3;3
55549;PMS7003;41397;49.972;18.944;2023-02-01T06:05:03;3;3;3
55549;PMS7003;41397;49.972;18.944;2023-02-01T06:08:04;6;6;5
55549;PMS7003;41397;49.972;18.944;2023-02-01T06:11:09;6;6;4
55549;PMS7003;41397;49.972;18.944;2023-02-01T06:14:11;7;7;5
55549;PMS7003;41397;49.972;18.944;2023-02-01T06:17:12;2;2;2
55549;PMS7003;41397;49.972;18.944;2023-02-01T06:20:16;4;4;3
55549;PMS7003;41397;49.972;18.944;2023-02-01T06:23:17;3;3;2
55549;PMS7003;41397;49.972;18.944;2023-02-01T06:26:19;3;3;3
55549;PMS7003;41397;49.972;18.944;2023-02-01T06:29:20;5;5;4
55549;PMS7003;41397;49.972;18.944;2023-02-01T06:32:22;0;0;0
55549;PMS7003;41397;49.972;18.944;2023-02-01T06:35:24;3;3;2
55549;PMS7003;41397;49.972;18.944;2023-02-01T06:38:27;6;6;4
55549;PMS7003;41397;49.972;18.944;2023-02-01T06:41:28;4;4;3
55549;PMS7003;41397;49.972;18.944;2023-02-01T06:44:29;5;5;4
55549;PMS7003;41397;49.972;18.944;2023-02-01T06:47:31;4;4;2
55549;PMS7003;41397;49.972;18.944;2023-02-01T06:50:32;7;7;4
55549;PMS7003;41397;49.972;18.944;2023-02-01T06:53:35;11;11;6
55549;PMS7003;41397;49.972;18.944;2023-02-01T06:56:37;8;8;6
55549;PMS7003;41397;49.972;18.944;2023-02-01T06:59:39;4;4;2
55549;PMS7003;41397;49.972;18.944;2023-02-01T07:02:40;6;6;3
55549;PMS7003;41397;49.972;18.944;2023-02-01T07:05:41;6;6;4
55549;PMS7003;41397;49.972;18.944;2023-02-01T07:08:43;7;7;5
55549;PMS7003;41397;49.972;18.944;2023-02-01T07:11:46;5;5;3
55549;PMS7003;41397;49.972;18.944;2023-02-01T07:14:47;5;4;3
55549;PMS7003;41397;49.972;18.944;2023-02-01T07:17:49;11;11;7
55549;PMS7003;41397;49.972;18.944;2023-02-01T07:20:50;7;7;6
55549;PMS7003;41397;49.972;18.944;2023-02-01T07:23:54;4;4;4
55549;PMS7003;41397;49.972;18.944;2023-02-01T07:26:56;7;7;3
55549;PMS7003;41397;49.972;18.944;2023-02-01T07:29:57;5;5;3
55549;PMS7003;41397;49.972;18.944;2023-02-01T07:33:02;5;5;4
55549;PMS7003;41397;49.972;18.944;2023-02-01T07:36:04;3;3;2
55549;PMS7003;41397;49.972;18.944;2023-02-01T07:39:07;2;2;2
55549;PMS7003;41397;49.972;18.944;2023-02-01T07:42:09;4;4;3
55549;PMS7003;41397;49.972;18.944;2023-02-01T07:45:10;6;6;3
55549;PMS7003;41397;49.972;18.944;2023-02-01T07:48:14;1;1;0
55549;PMS7003;41397;49.972;18.944;2023-02-01T07:51:16;3;3;2
55549;PMS7003;41397;49.972;18.944;2023-02-01T07:54:18;3;3;3
55549;PMS7003;41397;49.972;18.944;2023-02-01T07:57:19;9;9;7
55549;PMS7003;41397;49.972;18.944;2023-02-01T08:00:20;5;5;5
55549;PMS7003;41397;49.972;18.944;2023-02-01T08:03:36;7;7;5
55549;PMS7003;41397;49.972;18.944;2023-02-01T08:06:38;5;4;4
55549;PMS7003;41397;49.972;18.944;2023-02-01T08:09:40;4;4;4
55549;PMS7003;41397;49.972;18.944;2023-02-01T08:12:44;7;7;5
55549;PMS7003;41397;49.972;18.944;2023-02-01T08:15:51;5;5;5
55549;PMS7003;41397;49.972;18.944;2023-02-01T08:18:56;7;5;4
55549;PMS7003;41397;49.972;18.944;2023-02-01T08:21:57;6;6;5
55549;PMS7003;41397;49.972;18.944;2023-02-01T08:24:59;4;4;3
55549;PMS7003;41397;49.972;18.944;2023-02-01T08:28:02;5;5;3
55549;PMS7003;41397;49.972;18.944;2023-02-01T08:31:07;4;4;4
55549;PMS7003;41397;49.972;18.944;2023-02-01T08:34:10;8;8;5
55549;PMS7003;41397;49.972;18.944;2023-02-01T08:37:13;9;9;6
55549;PMS7003;41397;49.972;18.944;2023-02-01T08:40:14;8;7;6
55549;PMS7003;41397;49.972;18.944;2023-02-01T08:43:16;6;6;4
55549;PMS7003;41397;49.972;18.944;2023-02-01T08:46:17;3;3;2
55549;PMS7003;41397;49.972;18.944;2023-02-01T08:49:19;4;4;3
55549;PMS7003;41397;49.972;18.944;2023-02-01T08:52:20;7;7;3
55549;PMS7003;41397;49.972;18.944;2023-02-01T08:55:22;8;8;6
55549;PMS7003;41397;49.972;18.944;2023-02-01T08:58:23;4;4;3
55549;PMS7003;41397;49.972;18.944;2023-02-01T09:01:24;6;6;4
55549;PMS7003;41397;49.972;18.944;2023-02-01T09:04:26;9;9;3
55549;PMS7003;41397;49.972;18.944;2023-02-01T09:07:28;8;7;4
55549;PMS7003;41397;49.972;18.944;2023-02-01T09:10:29;7;7;5
55549;PMS7003;41397;49.972;18.944;2023-02-01T09:13:31;5;5;3
55549;PMS7003;41397;49.972;18.944;2023-02-01T09:16:34;3;3;3
55549;PMS7003;41397;49.972;18.944;2023-02-01T09:19:35;4;4;3
55549;PMS7003;41397;49.972;18.944;2023-02-01T09:22:37;6;6;4
55549;PMS7003;41397;49.972;18.944;2023-02-01T09:25:39;6;6;4
55549;PMS7003;41397;49.972;18.944;2023-02-01T09:28:41;13;13;7
55549;PMS7003;41397;49.972;18.944;2023-02-01T09:31:42;10;8;4
55549;PMS7003;41397;49.972;18.944;2023-02-01T09:34:43;3;3;3
55549;PMS7003;41397;49.972;18.944;2023-02-01T09:37:45;3;3;3
55549;PMS7003;41397;49.972;18.944;2023-02-01T09:40:46;5;5;3
55549;PMS7003;41397;49.972;18.944;2023-02-01T09:43:50;6;6;5
55549;PMS7003;41397;49.972;18.944;2023-02-01T09:46:59;1;1;1
55549;PMS7003;41397;49.972;18.944;2023-02-01T09:53:27;4;4;3
55549;PMS7003;41397;49.972;18.944;2023-02-01T09:56:39;7;7;4
55549;PMS7003;41397;49.972;18.944;2023-02-01T09:59:46;6;6;4
55549;PMS7003;41397;49.972;18.944;2023-02-01T10:02:53;3;3;3
55549;PMS7003;41397;49.972;18.944;2023-02-01T10:06:06;5;5;4
55549;PMS7003;41397;49.972;18.944;2023-02-01T10:28:23;10;10;6
55549;PMS7003;41397;49.972;18.944;2023-02-01T10:31:28;4;4;1
55549;PMS7003;41397;49.972;18.944;2023-02-01T10:34:35;8;8;5
55549;PMS7003;41397;49.972;18.944;2023-02-01T10:37:37;5;5;4
55549;PMS7003;41397;49.972;18.944;2023-02-01T10:40:42;6;4;4
55549;PMS7003;41397;49.972;18.944;2023-02-01T10:43:53;3;3;3
55549;PMS7003;41397;49.972;18.944;2023-02-01T10:46:57;7;7;4
55549;PMS7003;41397;49.972;18.944;2023-02-01T10:50:11;5;5;4
55549;PMS7003;41397;49.972;18.944;2023-02-01T10:53:17;2;2;2
55549;PMS7003;41397;49.972;18.944;2023-02-01T10:56:24;6;6;5
55549;PMS7003;41397;49.972;18.944;2023-02-01T10:59:28;6;6;5
55549;PMS7003;41397;49.972;18.944;2023-02-01T11:02:36;4;4;3
55549;PMS7003;41397;49.972;18.944;2023-02-01T11:08:53;4;4;4
55549;PMS7003;41397;49.972;18.944;2023-02-01T11:11:58;7;7;5
55549;PMS7003;41397;49.972;18.944;2023-02-01T11:15:12;5;5;4
55549;PMS7003;41397;49.972;18.944;2023-02-01T11:18:16;6;6;6
55549;PMS7003;41397;49.972;18.944;2023-02-01T11:21:19;4;4;2
55549;PMS7003;41397;49.972;18.944;2023-02-01T11:24:31;4;4;4
55549;PMS7003;41397;49.972;18.944;2023-02-01T11:27:36;5;5;3
55549;PMS7003;41397;49.972;18.944;2023-02-01T11:30:39;5;5;5
55549;PMS7003;41397;49.972;18.944;2023-02-01T11:33:54;3;3;2
55549;PMS7003;41397;49.972;18.944;2023-02-01T11:36:58;7;7;5
55549;PMS7003;41397;49.972;18.944;2023-02-01T11:43:28;6;6;3
55549;PMS7003;41397;49.972;18.944;2023-02-01T11:46:33;5;5;3
55549;PMS7003;41397;49.972;18.944;2023-02-01T11:49:35;5;5;4
55549;PMS7003;41397;49.972;18.944;2023-02-01T11:55:55;4;4;3
55549;PMS7003;41397;49.972;18.944;2023-02-01T12:05:38;8;6;3
55549;PMS7003;41397;49.972;18.944;2023-02-01T12:15:27;9;9;7
55549;PMS7003;41397;49.972;18.944;2023-02-01T12:38:44;4;4;3
55549;PMS7003;41397;49.972;18.944;2023-02-01T12:51:36;6;6;4
55549;PMS7003;41397;49.972;18.944;2023-02-01T12:57:58;15;15;12
55549;PMS7003;41397;49.972;18.944;2023-02-01T13:04:25;5;5;4
55549;PMS7003;41397;49.972;18.944;2023-02-01T13:07:34;11;11;9
55549;PMS7003;41397;49.972;18.944;2023-02-01T13:17:30;4;4;3
55549;PMS7003;41397;49.972;18.944;2023-02-01T13:20:35;5;5;4
55549;PMS7003;41397;49.972;18.944;2023-02-01T13:23:44;7;7;6
55549;PMS7003;41397;49.972;18.944;2023-02-01T13:26:48;6;6;5
55549;PMS7003;41397;49.972;18.944;2023-02-01T13:30:13;5;5;4
55549;PMS7003;41397;49.972;18.944;2023-02-01T13:36:22;3;3;2
55549;PMS7003;41397;49.972;18.944;2023-02-01T13:39:39;3;3;3
55549;PMS7003;41397;49.972;18.944;2023-02-01T13:42:50;2;2;2
55549;PMS7003;41397;49.972;18.944;2023-02-01T13:45:55;5;5;4
55549;PMS7003;41397;49.972;18.944;2023-02-01T13:49:03;4;4;4
55549;PMS7003;41397;49.972;18.944;2023-02-01T13:52:05;11;11;9
55549;PMS7003;41397;49.972;18.944;2023-02-01T13:58:32;8;8;6
55549;PMS7003;41397;49.972;18.944;2023-02-01T14:01:36;2;2;2
55549;PMS7003;41397;49.972;18.944;2023-02-01T14:04:48;5;5;3
55549;PMS7003;41397;49.972;18.944;2023-02-01T14:11:01;5;5;4
55549;PMS7003;41397;49.972;18.944;2023-02-01T14:30:20;6;6;5
55549;PMS7003;41397;49.972;18.944;2023-02-01T14:33:22;17;13;11
55549;PMS7003;41397;49.972;18.944;2023-02-01T14:36:38;9;9;7
55549;PMS7003;41397;49.972;18.944;2023-02-01T14:42:52;16;16;12
55549;PMS7003;41397;49.972;18.944;2023-02-01T14:45:54;15;15;11
55549;PMS7003;41397;49.972;18.944;2023-02-01T14:48:56;19;18;13
55549;PMS7003;41397;49.972;18.944;2023-02-01T14:51:58;9;9;5
55549;PMS7003;41397;49.972;18.944;2023-02-01T14:55:02;15;15;11
55549;PMS7003;41397;49.972;18.944;2023-02-01T15:01:23;9;9;4
55549;PMS7003;41397;49.972;18.944;2023-02-01T15:04:27;10;10;8
55549;PMS7003;41397;49.972;18.944;2023-02-01T15:07:34;16;16;12
55549;PMS7003;41397;49.972;18.944;2023-02-01T15:10:39;19;19;15
55549;PMS7003;41397;49.972;18.944;2023-02-01T15:13:48;19;19;13
55549;PMS7003;41397;49.972;18.944;2023-02-01T15:16:54;17;17;11
55549;PMS7003;41397;49.972;18.944;2023-02-01T15:23:15;15;15;8
55549;PMS7003;41397;49.972;18.944;2023-02-01T15:29:27;18;18;11
55549;PMS7003;41397;49.972;18.944;2023-02-01T15:32:35;25;23;15
55549;PMS7003;41397;49.972;18.944;2023-02-01T15:35:45;20;20;14
55549;PMS7003;41397;49.972;18.944;2023-02-01T15:38:48;19;19;14
55549;PMS7003;41397;49.972;18.944;2023-02-01T15:42:01;17;16;11
55549;PMS7003;41397;49.972;18.944;2023-02-01T15:45:19;22;22;14
55549;PMS7003;41397;49.972;18.944;2023-02-01T15:48:24;25;23;16
55549;PMS7003;41397;49.972;18.944;2023-02-01T15:51:28;19;19;13
55549;PMS7003;41397;49.972;18.944;2023-02-01T15:54:42;17;17;11
55549;PMS7003;41397;49.972;18.944;2023-02-01T15:57:52;17;17;13
55549;PMS7003;41397;49.972;18.944;2023-02-01T16:07:26;9;9;7
55549;PMS7003;41397;49.972;18.944;2023-02-01T16:10:30;18;18;12
55549;PMS7003;41397;49.972;18.944;2023-02-01T16:13:37;21;19;12
55549;PMS7003;41397;49.972;18.944;2023-02-01T16:16:40;17;17;12
55549;PMS7003;41397;49.972;18.944;2023-02-01T16:19:41;20;20;13
55549;PMS7003;41397;49.972;18.944;2023-02-01T16:22:43;16;15;11
55549;PMS7003;41397;49.972;18.944;2023-02-01T16:25:44;18;18;12
55549;PMS7003;41397;49.972;18.944;2023-02-01T16:28:48;14;14;12
55549;PMS7003;41397;49.972;18.944;2023-02-01T16:31:49;13;12;8
55549;PMS7003;41397;49.972;18.944;2023-02-01T16:34:51;12;11;8
55549;PMS7003;41397;49.972;18.944;2023-02-01T16:37:54;8;8;6
55549;PMS7003;41397;49.972;18.944;2023-02-01T16:40:56;14;14;10
55549;PMS7003;41397;49.972;18.944;2023-02-01T16:43:59;14;14;9
55549;PMS7003;41397;49.972;18.944;2023-02-01T16:47:01;14;14;9
55549;PMS7003;41397;49.972;18.944;2023-02-01T16:50:02;17;16;8
55549;PMS7003;41397;49.972;18.944;2023-02-01T16:53:04;12;12;9
55549;PMS7003;41397;49.972;18.944;2023-02-01T16:56:28;15;15;12
55549;PMS7003;41397;49.972;18.944;2023-02-01T16:59:20;16;16;10
55549;PMS7003;41397;49.972;18.944;2023-02-01T17:02:22;14;14;10
55549;PMS7003;41397;49.972;18.944;2023-02-01T17:05:24;15;15;11
55549;PMS7003;41397;49.972;18.944;2023-02-01T17:08:33;19;17;12
55549;PMS7003;41397;49.972;18.944;2023-02-01T17:11:36;18;18;11
55549;PMS7003;41397;49.972;18.944;2023-02-01T17:14:39;23;21;14
55549;PMS7003;41397;49.972;18.944;2023-02-01T17:17:42;21;18;10
55549;PMS7003;41397;49.972;18.944;2023-02-01T17:20:44;17;17;13
55549;PMS7003;41397;49.972;18.944;2023-02-01T17:23:48;19;18;12
55549;PMS7003;41397;49.972;18.944;2023-02-01T17:26:49;27;25;15
55549;PMS7003;41397;49.972;18.944;2023-02-01T17:29:52;21;21;13
55549;PMS7003;41397;49.972;18.944;2023-02-01T17:33:02;30;23;15
55549;PMS7003;41397;49.972;18.944;2023-02-01T17:36:04;17;17;12
55549;PMS7003;41397;49.972;18.944;2023-02-01T17:39:07;17;17;13
55549;PMS7003;41397;49.972;18.944;2023-02-01T17:42:10;13;13;10
55549;PMS7003;41397;49.972;18.944;2023-02-01T17:48:29;27;24;16
55549;PMS7003;41397;49.972;18.944;2023-02-01T17:51:30;22;22;15
55549;PMS7003;41397;49.972;18.944;2023-02-01T17:54:32;23;22;15
55549;PMS7003;41397;49.972;18.944;2023-02-01T17:57:35;16;16;11
55549;PMS7003;41397;49.972;18.944;2023-02-01T18:00:43;17;17;11
55549;PMS7003;41397;49.972;18.944;2023-02-01T18:03:49;12;12;10
55549;PMS7003;41397;49.972;18.944;2023-02-01T18:06:54;17;17;10
55549;PMS7003;41397;49.972;18.944;2023-02-01T18:10:06;23;21;14
55549;PMS7003;41397;49.972;18.944;2023-02-01T18:13:16;19;19;14
55549;PMS7003;41397;49.972;18.944;2023-02-01T18:16:20;15;15;11
55549;PMS7003;41397;49.972;18.944;2023-02-01T18:19:27;14;14;8
55549;PMS7003;41397;49.972;18.944;2023-02-01T18:22:32;20;19;11
55549;PMS7003;41397;49.972;18.944;2023-02-01T18:25:38;14;14;12
55549;PMS7003;41397;49.972;18.944;2023-02-01T18:28:57;13;13;10
55549;PMS7003;41397;49.972;18.944;2023-02-01T18:32:12;17;17;11
55549;PMS7003;41397;49.972;18.944;2023-02-01T18:35:18;20;20;12
55549;PMS7003;41397;49.972;18.944;2023-02-01T18:38:28;14;13;7
55549;PMS7003;41397;49.972;18.944;2023-02-01T18:41:46;15;15;12
55549;PMS7003;41397;49.972;18.944;2023-02-01T18:44:58;13;13;10
55549;PMS7003;41397;49.972;18.944;2023-02-01T18:48:08;16;16;10
55549;PMS7003;41397;49.972;18.944;2023-02-01T18:51:26;18;18;11
55549;PMS7003;41397;49.972;18.944;2023-02-01T18:54:30;10;10;9
55549;PMS7003;41397;49.972;18.944;2023-02-01T18:57:32;15;15;12
55549;PMS7003;41397;49.972;18.944;2023-02-01T19:00:34;9;9;6
55549;PMS7003;41397;49.972;18.944;2023-02-01T19:03:55;7;6;4
55549;PMS7003;41397;49.972;18.944;2023-02-01T19:07:12;13;13;7
55549;PMS7003;41397;49.972;18.944;2023-02-01T19:10:32;15;13;9
55549;PMS7003;41397;49.972;18.944;2023-02-01T19:13:49;11;11;8
55549;PMS7003;41397;49.972;18.944;2023-02-01T19:17:05;8;8;6
55549;PMS7003;41397;49.972;18.944;2023-02-01T19:23:31;16;13;7
55549;PMS7003;41397;49.972;18.944;2023-02-01T19:26:46;13;13;9
55549;PMS7003;41397;49.972;18.944;2023-02-01T19:30:11;13;12;9
55549;PMS7003;41397;49.972;18.944;2023-02-01T19:33:40;16;16;10
55549;PMS7003;41397;49.972;18.944;2023-02-01T19:36:42;20;17;10
55549;PMS7003;41397;49.972;18.944;2023-02-01T19:39:49;10;10;7
55549;PMS7003;41397;49.972;18.944;2023-02-01T19:43:12;10;10;7
55549;PMS7003;41397;49.972;18.944;2023-02-01T19:46:16;12;12;7
55549;PMS7003;41397;49.972;18.944;2023-02-01T19:49:20;12;12;9
55549;PMS7003;41397;49.972;18.944;2023-02-01T19:52:26;12;12;7
55549;PMS7003;41397;49.972;18.944;2023-02-01T19:55:34;10;10;9
55549;PMS7003;41397;49.972;18.944;2023-02-01T19:58:38;9;9;5
55549;PMS7003;41397;49.972;18.944;2023-02-01T20:01:39;9;9;6
55549;PMS7003;41397;49.972;18.944;2023-02-01T20:04:47;11;11;9
55549;PMS7003;41397;49.972;18.944;2023-02-01T20:07:55;8;8;6
55549;PMS7003;41397;49.972;18.944;2023-02-01T20:11:06;5;5;5
55549;PMS7003;41397;49.972;18.944;2023-02-01T20:14:22;8;8;5
55549;PMS7003;41397;49.972;18.944;2023-02-01T20:17:34;8;8;6
55549;PMS7003;41397;49.972;18.944;2023-02-01T20:20:58;8;8;5
55549;PMS7003;41397;49.972;18.944;2023-02-01T20:24:25;4;4;3
55549;PMS7003;41397;49.972;18.944;2023-02-01T20:27:27;9;9;7
55549;PMS7003;41397;49.972;18.944;2023-02-01T20:30:31;16;15;8
55549;PMS7003;41397;49.972;18.944;2023-02-01T20:33:33;10;10;7
55549;PMS7003;41397;49.972;18.944;2023-02-01T20:36:35;8;8;6
55549;PMS7003;41397;49.972;18.944;2023-02-01T20:39:39;8;8;6
55549;PMS7003;41397;49.972;18.944;2023-02-01T20:42:41;9;8;5
55549;PMS7003;41397;49.972;18.944;2023-02-01T20:45:49;7;7;5
55549;PMS7003;41397;49.972;18.944;2023-02-01T20:48:51;7;7;6
55549;PMS7003;41397;49.972;18.944;2023-02-01T20:51:53;8;8;7
55549;PMS7003;41397;49.972;18.944;2023-02-01T20:55:00;6;6;4
55549;PMS7003;41397;49.972;18.944;2023-02-01T20:58:08;3;3;3
55549;PMS7003;41397;49.972;18.944;2023-02-01T21:01:16;12;12;7
55549;PMS7003;41397;49.972;18.944;2023-02-01T21:04:22;9;9;6
55549;PMS7003;41397;49.972;18.944;2023-02-01T21:07:27;8;8;5
55549;PMS7003;41397;49.972;18.944;2023-02-01T21:10:30;7;7;5
55549;PMS7003;41397;49.972;18.944;2023-02-01T21:13:32;6;6;4
55549;PMS7003;41397;49.972;18.944;2023-02-01T21:16:42;7;7;6
55549;PMS7003;41397;49.972;18.944;2023-02-01T21:19:44;10;10;7
55549;PMS7003;41397;49.972;18.944;2023-02-01T21:22:45;9;9;7
55549;PMS7003;41397;49.972;18.944;2023-02-01T21:25:46;5;5;3
55549;PMS7003;41397;49.972;18.944;2023-02-01T21:28:53;14;13;9
55549;PMS7003;41397;49.972;18.944;2023-02-01T21:31:59;17;15;8
55549;PMS7003;41397;49.972;18.944;2023-02-01T21:35:06;12;12;8
55549;PMS7003;41397;49.972;18.944;2023-02-01T21:38:11;10;10;8
55549;PMS7003;41397;49.972;18.944;2023-02-01T21:41:13;9;9;6
55549;PMS7003;41397;49.972;18.944;2023-02-01T21:44:26;11;10;5
55549;PMS7003;41397;49.972;18.944;2023-02-01T21:47:28;6;6;5
55549;PMS7003;41397;49.972;18.944;2023-02-01T21:50:30;7;7;6
55549;PMS7003;41397;49.972;18.944;2023-02-01T21:53:35;6;6;4
55549;PMS7003;41397;49.972;18.944;2023-02-01T21:56:44;3;3;3
55549;PMS7003;41397;49.972;18.944;2023-02-01T21:59:46;7;7;4
55549;PMS7003;41397;49.972;18.944;2023-02-01T22:02:48;5;5;4
55549;PMS7003;41397;49.972;18.944;2023-02-01T22:05:49;5;5;3
55549;PMS7003;41397;49.972;18.944;2023-02-01T22:08:51;5;5;4
55549;PMS7003;41397;49.972;18.944;2023-02-01T22:11:53;5;5;5
55549;PMS7003;41397;49.972;18.944;2023-02-01T22:14:55;6;6;4
55549;PMS7003;41397;49.972;18.944;2023-02-01T22:17:57;8;8;5
55549;PMS7003;41397;49.972;18.944;2023-02-01T22:20:59;5;5;3
55549;PMS7003;41397;49.972;18.944;2023-02-01T22:24:03;3;3;2
55549;PMS7003;41397;49.972;18.944;2023-02-01T22:27:05;5;5;3
55549;PMS7003;41397;49.972;18.944;2023-02-01T22:30:08;8;8;4
55549;PMS7003;41397;49.972;18.944;2023-02-01T22:33:10;5;5;3
55549;PMS7003;41397;49.972;18.944;2023-02-01T22:36:12;5;5;3
55549;PMS7003;41397;49.972;18.944;2023-02-01T22:39:17;5;5;5
55549;PMS7003;41397;49.972;18.944;2023-02-01T22:42:19;6;6;4
55549;PMS7003;41397;49.972;18.944;2023-02-01T22:45:21;9;9;6
55549;PMS7003;41397;49.972;18.944;2023-02-01T22:48:22;3;3;3
55549;PMS7003;41397;49.972;18.944;2023-02-01T22:53:45;4;4;3
55549;PMS7003;41397;49.972;18.944;2023-02-01T22:56:47;5;5;3
55549;PMS7003;41397;49.972;18.944;2023-02-01T22:59:49;1;1;0